sensor_id;sensor_type;location;lat;lon;timestamp;temperature;humidity
3715;DHT22;1873;49.988;8.674;2022-08-05T00:01:54;29.40;58.40
3715;DHT22;1873;49.988;8.674;2022-08-05T00:04:34;29.40;57.90
3715;DHT22;1873;49.988;8.674;2022-08-05T00:07:02;29.30;58.10
3715;DHT22;1873;49.988;8.674;2022-08-05T00:09:50;29.20;58.70
3715;DHT22;1873;49.988;8.674;2022-08-05T00:12:20;29.00;59.30
3715;DHT22;1873;49.988;8.674;2022-08-05T00:14:49;28.90;60.00
3715;DHT22;1873;49.988;8.674;2022-08-05T00:17:19;28.80;60.50
3715;DHT22;1873;49.988;8.674;2022-08-05T00:19:47;28.70;61.50
3715;DHT22;1873;49.988;8.674;2022-08-05T00:22:28;28.60;61.90
3715;DHT22;1873;49.988;8.674;2022-08-05T00:24:57;28.60;63.30
3715;DHT22;1873;49.988;8.674;2022-08-05T00:27:31;28.50;64.20
3715;DHT22;1873;49.988;8.674;2022-08-05T00:30:03;28.50;64.70
3715;DHT22;1873;49.988;8.674;2022-08-05T00:32:39;28.40;65.20
3715;DHT22;1873;49.988;8.674;2022-08-05T00:35:08;28.40;66.10
3715;DHT22;1873;49.988;8.674;2022-08-05T00:42:55;28.30;67.00
3715;DHT22;1873;49.988;8.674;2022-08-05T00:45:25;28.30;67.00
3715;DHT22;1873;49.988;8.674;2022-08-05T00:50:45;28.30;67.80
3715;DHT22;1873;49.988;8.674;2022-08-05T00:53:15;28.30;68.40
3715;DHT22;1873;49.988;8.674;2022-08-05T00:56:06;28.30;68.40
3715;DHT22;1873;49.988;8.674;2022-08-05T00:58:36;28.30;68.30
3715;DHT22;1873;49.988;8.674;2022-08-05T01:01:09;28.30;68.10
3715;DHT22;1873;49.988;8.674;2022-08-05T01:03:40;28.30;68.40
3715;DHT22;1873;49.988;8.674;2022-08-05T01:06:15;28.30;70.00
3715;DHT22;1873;49.988;8.674;2022-08-05T01:08:44;28.20;69.60
3715;DHT22;1873;49.988;8.674;2022-08-05T01:11:16;28.20;69.70
3715;DHT22;1873;49.988;8.674;2022-08-05T01:13:57;28.20;69.70
3715;DHT22;1873;49.988;8.674;2022-08-05T01:16:32;28.20;69.70
3715;DHT22;1873;49.988;8.674;2022-08-05T01:19:15;28.20;69.40
3715;DHT22;1873;49.988;8.674;2022-08-05T01:22:10;28.20;69.00
3715;DHT22;1873;49.988;8.674;2022-08-05T01:24:59;28.20;68.90
3715;DHT22;1873;49.988;8.674;2022-08-05T01:30:52;28.10;69.50
3715;DHT22;1873;49.988;8.674;2022-08-05T01:33:31;28.10;68.90
3715;DHT22;1873;49.988;8.674;2022-08-05T01:36:07;28.20;69.50
3715;DHT22;1873;49.988;8.674;2022-08-05T01:38:43;28.10;68.90
3715;DHT22;1873;49.988;8.674;2022-08-05T01:41:17;28.20;68.80
3715;DHT22;1873;49.988;8.674;2022-08-05T01:43:55;28.20;68.70
3715;DHT22;1873;49.988;8.674;2022-08-05T01:46:25;28.10;69.80
3715;DHT22;1873;49.988;8.674;2022-08-05T01:49:14;28.20;69.40
3715;DHT22;1873;49.988;8.674;2022-08-05T01:51:53;28.20;69.20
3715;DHT22;1873;49.988;8.674;2022-08-05T01:54:27;28.20;69.40
3715;DHT22;1873;49.988;8.674;2022-08-05T01:56:59;28.20;68.50
3715;DHT22;1873;49.988;8.674;2022-08-05T01:59:48;28.30;68.20
3715;DHT22;1873;49.988;8.674;2022-08-05T02:02:20;28.30;68.80
3715;DHT22;1873;49.988;8.674;2022-08-05T02:04:57;28.40;67.50
3715;DHT22;1873;49.988;8.674;2022-08-05T02:07:29;28.40;67.80
3715;DHT22;1873;49.988;8.674;2022-08-05T02:09:59;28.30;67.80
3715;DHT22;1873;49.988;8.674;2022-08-05T02:12:36;28.30;68.00
3715;DHT22;1873;49.988;8.674;2022-08-05T02:15:12;28.20;68.80
3715;DHT22;1873;49.988;8.674;2022-08-05T02:17:50;27.90;69.80
3715;DHT22;1873;49.988;8.674;2022-08-05T02:20:45;27.90;70.40
3715;DHT22;1873;49.988;8.674;2022-08-05T02:23:17;27.90;71.40
3715;DHT22;1873;49.988;8.674;2022-08-05T02:25:51;27.90;71.70
3715;DHT22;1873;49.988;8.674;2022-08-05T02:28:24;27.70;72.70
3715;DHT22;1873;49.988;8.674;2022-08-05T02:31:01;27.40;73.30
3715;DHT22;1873;49.988;8.674;2022-08-05T02:33:46;27.30;74.20
3715;DHT22;1873;49.988;8.674;2022-08-05T02:36:24;27.30;75.70
3715;DHT22;1873;49.988;8.674;2022-08-05T02:38:59;27.30;75.90
3715;DHT22;1873;49.988;8.674;2022-08-05T02:41:30;27.40;76.30
3715;DHT22;1873;49.988;8.674;2022-08-05T02:44:19;27.50;76.20
3715;DHT22;1873;49.988;8.674;2022-08-05T02:46:50;27.60;75.90
3715;DHT22;1873;49.988;8.674;2022-08-05T02:49:31;27.70;75.80
3715;DHT22;1873;49.988;8.674;2022-08-05T02:52:06;27.80;75.60
3715;DHT22;1873;49.988;8.674;2022-08-05T02:54:56;27.90;75.70
3715;DHT22;1873;49.988;8.674;2022-08-05T02:57:31;27.90;75.40
3715;DHT22;1873;49.988;8.674;2022-08-05T03:00:20;27.90;75.30
3715;DHT22;1873;49.988;8.674;2022-08-05T03:02:52;27.90;75.20
3715;DHT22;1873;49.988;8.674;2022-08-05T03:05:26;27.80;76.20
3715;DHT22;1873;49.988;8.674;2022-08-05T03:08:15;27.80;78.30
3715;DHT22;1873;49.988;8.674;2022-08-05T03:10:55;27.80;79.80
3715;DHT22;1873;49.988;8.674;2022-08-05T03:13:43;27.50;82.30
3715;DHT22;1873;49.988;8.674;2022-08-05T03:16:28;27.10;86.40
3715;DHT22;1873;49.988;8.674;2022-08-05T03:18:58;26.80;87.50
3715;DHT22;1873;49.988;8.674;2022-08-05T03:21:31;26.70;91.80
3715;DHT22;1873;49.988;8.674;2022-08-05T03:24:15;26.70;91.40
3715;DHT22;1873;49.988;8.674;2022-08-05T03:30:26;26.70;94.00
3715;DHT22;1873;49.988;8.674;2022-08-05T03:33:00;26.70;95.60
3715;DHT22;1873;49.988;8.674;2022-08-05T03:35:29;26.80;96.90
3715;DHT22;1873;49.988;8.674;2022-08-05T03:38:10;26.70;98.80
3715;DHT22;1873;49.988;8.674;2022-08-05T03:40:40;26.80;98.60
3715;DHT22;1873;49.988;8.674;2022-08-05T03:43:13;26.90;99.90
3715;DHT22;1873;49.988;8.674;2022-08-05T03:46:02;26.90;99.90
3715;DHT22;1873;49.988;8.674;2022-08-05T03:48:37;26.90;99.90
3715;DHT22;1873;49.988;8.674;2022-08-05T03:51:12;26.60;99.90
3715;DHT22;1873;49.988;8.674;2022-08-05T03:54:11;26.60;99.90
3715;DHT22;1873;49.988;8.674;2022-08-05T03:57:04;26.30;99.90
3715;DHT22;1873;49.988;8.674;2022-08-05T03:59:45;25.90;99.90
3715;DHT22;1873;49.988;8.674;2022-08-05T04:02:23;25.90;99.90
3715;DHT22;1873;49.988;8.674;2022-08-05T04:05:11;25.90;99.90
3715;DHT22;1873;49.988;8.674;2022-08-05T04:07:41;25.90;99.90
3715;DHT22;1873;49.988;8.674;2022-08-05T04:10:26;25.90;99.90
3715;DHT22;1873;49.988;8.674;2022-08-05T04:13:04;26.00;99.90
3715;DHT22;1873;49.988;8.674;2022-08-05T04:15:33;26.00;99.90
3715;DHT22;1873;49.988;8.674;2022-08-05T04:18:03;26.00;99.90
3715;DHT22;1873;49.988;8.674;2022-08-05T04:20:35;25.90;99.90
3715;DHT22;1873;49.988;8.674;2022-08-05T04:23:07;25.90;99.90
3715;DHT22;1873;49.988;8.674;2022-08-05T04:25:40;25.80;99.90
3715;DHT22;1873;49.988;8.674;2022-08-05T04:28:26;25.70;99.90
3715;DHT22;1873;49.988;8.674;2022-08-05T04:30:58;25.70;99.90
3715;DHT22;1873;49.988;8.674;2022-08-05T04:33:36;25.70;99.90
3715;DHT22;1873;49.988;8.674;2022-08-05T04:36:25;25.50;99.90
3715;DHT22;1873;49.988;8.674;2022-08-05T04:39:13;25.40;99.90
3715;DHT22;1873;49.988;8.674;2022-08-05T04:41:43;25.40;99.90
3715;DHT22;1873;49.988;8.674;2022-08-05T04:44:14;25.30;99.90
3715;DHT22;1873;49.988;8.674;2022-08-05T04:46:55;25.20;99.90
3715;DHT22;1873;49.988;8.674;2022-08-05T04:49:24;25.30;99.90
3715;DHT22;1873;49.988;8.674;2022-08-05T04:52:12;25.30;99.90
3715;DHT22;1873;49.988;8.674;2022-08-05T04:54:40;25.50;99.90
3715;DHT22;1873;49.988;8.674;2022-08-05T04:57:11;25.60;99.90
3715;DHT22;1873;49.988;8.674;2022-08-05T04:59:48;25.10;99.90
3715;DHT22;1873;49.988;8.674;2022-08-05T05:05:10;25.10;99.90
3715;DHT22;1873;49.988;8.674;2022-08-05T05:07:59;25.10;99.90
3715;DHT22;1873;49.988;8.674;2022-08-05T05:10:41;25.10;99.90
3715;DHT22;1873;49.988;8.674;2022-08-05T05:13:35;24.90;99.90
3715;DHT22;1873;49.988;8.674;2022-08-05T05:18:56;24.80;99.90
3715;DHT22;1873;49.988;8.674;2022-08-05T05:21:45;24.80;99.90
3715;DHT22;1873;49.988;8.674;2022-08-05T05:27:21;24.30;99.90
3715;DHT22;1873;49.988;8.674;2022-08-05T05:30:12;24.10;99.90
3715;DHT22;1873;49.988;8.674;2022-08-05T05:32:55;24.30;99.90
3715;DHT22;1873;49.988;8.674;2022-08-05T05:35:29;24.30;99.90
3715;DHT22;1873;49.988;8.674;2022-08-05T05:38:04;24.30;99.90
3715;DHT22;1873;49.988;8.674;2022-08-05T05:40:38;24.40;99.90
3715;DHT22;1873;49.988;8.674;2022-08-05T05:43:17;24.50;99.90
3715;DHT22;1873;49.988;8.674;2022-08-05T05:46:10;24.30;99.90
3715;DHT22;1873;49.988;8.674;2022-08-05T05:48:44;24.10;99.90
3715;DHT22;1873;49.988;8.674;2022-08-05T05:51:18;24.10;99.90
3715;DHT22;1873;49.988;8.674;2022-08-05T05:53:52;24.20;99.90
3715;DHT22;1873;49.988;8.674;2022-08-05T05:56:26;24.00;99.90
3715;DHT22;1873;49.988;8.674;2022-08-05T05:59:00;24.20;99.90
3715;DHT22;1873;49.988;8.674;2022-08-05T06:01:35;24.30;99.90
3715;DHT22;1873;49.988;8.674;2022-08-05T06:04:06;24.40;99.90
3715;DHT22;1873;49.988;8.674;2022-08-05T06:06:38;24.40;99.90
3715;DHT22;1873;49.988;8.674;2022-08-05T06:09:13;24.60;99.90
3715;DHT22;1873;49.988;8.674;2022-08-05T06:11:51;24.80;99.90
3715;DHT22;1873;49.988;8.674;2022-08-05T06:14:28;24.60;99.90
3715;DHT22;1873;49.988;8.674;2022-08-05T06:16:59;24.50;99.90
3715;DHT22;1873;49.988;8.674;2022-08-05T06:19:50;24.30;99.90
3715;DHT22;1873;49.988;8.674;2022-08-05T06:22:26;24.20;99.90
3715;DHT22;1873;49.988;8.674;2022-08-05T06:24:54;24.50;99.90
3715;DHT22;1873;49.988;8.674;2022-08-05T06:27:24;24.50;99.90
3715;DHT22;1873;49.988;8.674;2022-08-05T06:30:13;24.50;99.90
3715;DHT22;1873;49.988;8.674;2022-08-05T06:32:48;24.70;99.90
3715;DHT22;1873;49.988;8.674;2022-08-05T06:35:18;24.80;99.90
3715;DHT22;1873;49.988;8.674;2022-08-05T06:38:06;25.00;99.90
3715;DHT22;1873;49.988;8.674;2022-08-05T06:40:38;25.10;99.90
3715;DHT22;1873;49.988;8.674;2022-08-05T06:43:10;24.60;99.90
3715;DHT22;1873;49.988;8.674;2022-08-05T06:45:59;24.70;99.90
3715;DHT22;1873;49.988;8.674;2022-08-05T06:48:34;24.60;99.90
3715;DHT22;1873;49.988;8.674;2022-08-05T06:51:25;24.40;99.90
3715;DHT22;1873;49.988;8.674;2022-08-05T06:53:56;24.80;99.90
3715;DHT22;1873;49.988;8.674;2022-08-05T06:56:28;24.70;99.90
3715;DHT22;1873;49.988;8.674;2022-08-05T06:59:00;24.60;99.90
3715;DHT22;1873;49.988;8.674;2022-08-05T07:01:35;24.40;99.90
3715;DHT22;1873;49.988;8.674;2022-08-05T07:04:12;24.40;99.90
3715;DHT22;1873;49.988;8.674;2022-08-05T07:06:45;24.30;99.90
3715;DHT22;1873;49.988;8.674;2022-08-05T07:09:16;24.50;99.90
3715;DHT22;1873;49.988;8.674;2022-08-05T07:11:50;23.40;99.90
3715;DHT22;1873;49.988;8.674;2022-08-05T07:14:19;22.40;99.90
3715;DHT22;1873;49.988;8.674;2022-08-05T07:17:05;22.40;99.90
3715;DHT22;1873;49.988;8.674;2022-08-05T07:19:55;22.20;99.90
3715;DHT22;1873;49.988;8.674;2022-08-05T07:22:44;22.30;99.90
3715;DHT22;1873;49.988;8.674;2022-08-05T07:25:13;22.30;99.90
3715;DHT22;1873;49.988;8.674;2022-08-05T07:27:51;22.30;99.90
3715;DHT22;1873;49.988;8.674;2022-08-05T07:30:28;22.50;99.90
3715;DHT22;1873;49.988;8.674;2022-08-05T07:32:59;22.70;99.90
3715;DHT22;1873;49.988;8.674;2022-08-05T07:35:37;22.90;99.90
3715;DHT22;1873;49.988;8.674;2022-08-05T07:38:26;23.00;99.90
3715;DHT22;1873;49.988;8.674;2022-08-05T07:41:03;23.00;99.90
3715;DHT22;1873;49.988;8.674;2022-08-05T07:43:52;23.10;99.90
3715;DHT22;1873;49.988;8.674;2022-08-05T07:46:26;23.10;99.90
3715;DHT22;1873;49.988;8.674;2022-08-05T07:48:58;24.40;99.90
3715;DHT22;1873;49.988;8.674;2022-08-05T07:51:35;23.20;99.90
3715;DHT22;1873;49.988;8.674;2022-08-05T07:54:16;23.20;99.90
3715;DHT22;1873;49.988;8.674;2022-08-05T07:56:52;23.30;99.90
3715;DHT22;1873;49.988;8.674;2022-08-05T07:59:41;23.30;99.90
3715;DHT22;1873;49.988;8.674;2022-08-05T08:02:14;23.30;99.90
3715;DHT22;1873;49.988;8.674;2022-08-05T08:04:44;23.10;99.90
3715;DHT22;1873;49.988;8.674;2022-08-05T08:07:17;23.20;99.90
3715;DHT22;1873;49.988;8.674;2022-08-05T08:09:49;23.20;99.90
3715;DHT22;1873;49.988;8.674;2022-08-05T08:12:21;23.00;99.90
3715;DHT22;1873;49.988;8.674;2022-08-05T08:15:07;22.90;99.90
3715;DHT22;1873;49.988;8.674;2022-08-05T08:17:42;23.00;99.90
3715;DHT22;1873;49.988;8.674;2022-08-05T08:20:15;23.30;99.90
3715;DHT22;1873;49.988;8.674;2022-08-05T08:23:06;23.30;99.90
3715;DHT22;1873;49.988;8.674;2022-08-05T08:25:56;23.20;99.90
3715;DHT22;1873;49.988;8.674;2022-08-05T08:28:30;23.10;99.90
3715;DHT22;1873;49.988;8.674;2022-08-05T08:31:20;23.10;99.90
3715;DHT22;1873;49.988;8.674;2022-08-05T08:33:54;23.20;99.90
3715;DHT22;1873;49.988;8.674;2022-08-05T08:36:28;23.20;99.90
3715;DHT22;1873;49.988;8.674;2022-08-05T08:39:18;23.40;99.90
3715;DHT22;1873;49.988;8.674;2022-08-05T08:41:48;23.30;99.90
3715;DHT22;1873;49.988;8.674;2022-08-05T08:44:29;23.40;99.90
3715;DHT22;1873;49.988;8.674;2022-08-05T08:47:22;23.50;99.90
3715;DHT22;1873;49.988;8.674;2022-08-05T08:50:13;23.60;99.90
3715;DHT22;1873;49.988;8.674;2022-08-05T08:53:04;23.50;99.90
3715;DHT22;1873;49.988;8.674;2022-08-05T08:55:39;23.40;99.90
3715;DHT22;1873;49.988;8.674;2022-08-05T08:58:28;23.60;99.90
3715;DHT22;1873;49.988;8.674;2022-08-05T09:01:12;23.60;99.90
3715;DHT22;1873;49.988;8.674;2022-08-05T09:03:57;23.50;99.90
3715;DHT22;1873;49.988;8.674;2022-08-05T09:06:28;23.40;99.90
3715;DHT22;1873;49.988;8.674;2022-08-05T09:08:58;23.60;99.90
3715;DHT22;1873;49.988;8.674;2022-08-05T09:11:29;23.70;99.90
3715;DHT22;1873;49.988;8.674;2022-08-05T09:14:17;23.70;99.90
3715;DHT22;1873;49.988;8.674;2022-08-05T09:17:08;23.90;99.90
3715;DHT22;1873;49.988;8.674;2022-08-05T09:19:58;23.90;99.90
3715;DHT22;1873;49.988;8.674;2022-08-05T09:23:05;24.10;99.90
3715;DHT22;1873;49.988;8.674;2022-08-05T09:25:36;24.30;99.90
3715;DHT22;1873;49.988;8.674;2022-08-05T09:28:26;24.40;99.90
3715;DHT22;1873;49.988;8.674;2022-08-05T09:31:01;24.30;99.90
3715;DHT22;1873;49.988;8.674;2022-08-05T09:33:53;24.20;99.90
3715;DHT22;1873;49.988;8.674;2022-08-05T09:36:22;24.10;99.90
3715;DHT22;1873;49.988;8.674;2022-08-05T09:39:00;24.20;99.90
3715;DHT22;1873;49.988;8.674;2022-08-05T09:41:56;24.50;99.90
3715;DHT22;1873;49.988;8.674;2022-08-05T09:44:49;24.70;99.90
3715;DHT22;1873;49.988;8.674;2022-08-05T09:47:23;24.80;99.90
3715;DHT22;1873;49.988;8.674;2022-08-05T09:49:53;25.10;99.90
3715;DHT22;1873;49.988;8.674;2022-08-05T09:52:31;25.40;99.90
3715;DHT22;1873;49.988;8.674;2022-08-05T09:55:04;25.50;99.90
3715;DHT22;1873;49.988;8.674;2022-08-05T09:57:53;25.70;99.90
3715;DHT22;1873;49.988;8.674;2022-08-05T10:00:27;25.70;99.90
3715;DHT22;1873;49.988;8.674;2022-08-05T10:02:58;25.80;99.90
3715;DHT22;1873;49.988;8.674;2022-08-05T10:05:35;25.80;99.90
3715;DHT22;1873;49.988;8.674;2022-08-05T10:08:04;25.70;99.90
3715;DHT22;1873;49.988;8.674;2022-08-05T10:10:53;25.80;99.90
3715;DHT22;1873;49.988;8.674;2022-08-05T10:13:26;25.70;99.90
3715;DHT22;1873;49.988;8.674;2022-08-05T10:16:33;25.80;99.90
3715;DHT22;1873;49.988;8.674;2022-08-05T10:19:19;25.70;99.90
3715;DHT22;1873;49.988;8.674;2022-08-05T10:22:07;25.80;99.90
3715;DHT22;1873;49.988;8.674;2022-08-05T10:24:55;25.80;99.90
3715;DHT22;1873;49.988;8.674;2022-08-05T10:27:24;25.90;99.90
3715;DHT22;1873;49.988;8.674;2022-08-05T10:30:13;25.90;99.90
3715;DHT22;1873;49.988;8.674;2022-08-05T10:33:03;26.00;99.90
3715;DHT22;1873;49.988;8.674;2022-08-05T10:35:35;26.20;99.90
3715;DHT22;1873;49.988;8.674;2022-08-05T10:38:11;26.40;99.90
3715;DHT22;1873;49.988;8.674;2022-08-05T10:40:46;26.70;99.90
3715;DHT22;1873;49.988;8.674;2022-08-05T10:43:36;26.90;99.90
3715;DHT22;1873;49.988;8.674;2022-08-05T10:46:42;27.10;99.90
3715;DHT22;1873;49.988;8.674;2022-08-05T10:49:23;27.10;99.90
3715;DHT22;1873;49.988;8.674;2022-08-05T10:51:59;26.80;99.90
3715;DHT22;1873;49.988;8.674;2022-08-05T10:54:47;26.70;99.90
3715;DHT22;1873;49.988;8.674;2022-08-05T10:57:25;26.80;99.90
3715;DHT22;1873;49.988;8.674;2022-08-05T11:00:07;26.90;99.90
3715;DHT22;1873;49.988;8.674;2022-08-05T11:03:11;27.30;99.90
3715;DHT22;1873;49.988;8.674;2022-08-05T11:06:20;28.00;99.90
3715;DHT22;1873;49.988;8.674;2022-08-05T11:09:13;28.00;99.90
3715;DHT22;1873;49.988;8.674;2022-08-05T11:11:58;28.10;99.90
3715;DHT22;1873;49.988;8.674;2022-08-05T11:14:34;28.10;99.90
3715;DHT22;1873;49.988;8.674;2022-08-05T11:17:29;28.00;99.90
3715;DHT22;1873;49.988;8.674;2022-08-05T11:23:50;28.00;99.90
3715;DHT22;1873;49.988;8.674;2022-08-05T11:26:49;27.80;99.90
3715;DHT22;1873;49.988;8.674;2022-08-05T11:29:42;27.60;99.90
3715;DHT22;1873;49.988;8.674;2022-08-05T11:32:25;27.60;99.90
3715;DHT22;1873;49.988;8.674;2022-08-05T11:34:55;27.60;99.90
3715;DHT22;1873;49.988;8.674;2022-08-05T11:41:01;27.80;99.90
3715;DHT22;1873;49.988;8.674;2022-08-05T11:43:55;28.00;99.90
3715;DHT22;1873;49.988;8.674;2022-08-05T11:46:35;28.30;99.90
3715;DHT22;1873;49.988;8.674;2022-08-05T11:49:24;28.40;99.90
3715;DHT22;1873;49.988;8.674;2022-08-05T11:51:54;28.30;99.90
3715;DHT22;1873;49.988;8.674;2022-08-05T11:54:38;28.30;99.90
3715;DHT22;1873;49.988;8.674;2022-08-05T11:57:10;28.20;99.90
3715;DHT22;1873;49.988;8.674;2022-08-05T11:59:59;28.10;99.90
3715;DHT22;1873;49.988;8.674;2022-08-05T12:02:29;27.90;99.90
3715;DHT22;1873;49.988;8.674;2022-08-05T12:05:02;27.90;99.90
3715;DHT22;1873;49.988;8.674;2022-08-05T12:07:43;27.90;99.90
3715;DHT22;1873;49.988;8.674;2022-08-05T12:10:38;28.00;99.90
3715;DHT22;1873;49.988;8.674;2022-08-05T12:13:15;28.10;99.90
3715;DHT22;1873;49.988;8.674;2022-08-05T12:16:05;28.10;99.90
3715;DHT22;1873;49.988;8.674;2022-08-05T12:18:42;28.20;99.90
3715;DHT22;1873;49.988;8.674;2022-08-05T12:21:21;28.20;99.90
3715;DHT22;1873;49.988;8.674;2022-08-05T12:23:58;28.10;99.80
3715;DHT22;1873;49.988;8.674;2022-08-05T12:30:03;28.40;99.50
3715;DHT22;1873;49.988;8.674;2022-08-05T12:32:34;28.40;99.20
3715;DHT22;1873;49.988;8.674;2022-08-05T12:35:06;28.40;99.90
3715;DHT22;1873;49.988;8.674;2022-08-05T12:37:35;28.50;99.60
3715;DHT22;1873;49.988;8.674;2022-08-05T12:40:08;28.50;99.40
3715;DHT22;1873;49.988;8.674;2022-08-05T12:42:54;28.40;99.30
3715;DHT22;1873;49.988;8.674;2022-08-05T12:45:25;28.30;99.70
3715;DHT22;1873;49.988;8.674;2022-08-05T12:48:14;28.30;99.60
3715;DHT22;1873;49.988;8.674;2022-08-05T12:51:12;28.40;99.80
3715;DHT22;1873;49.988;8.674;2022-08-05T12:54:03;28.20;99.80
3715;DHT22;1873;49.988;8.674;2022-08-05T12:56:46;28.20;99.90
3715;DHT22;1873;49.988;8.674;2022-08-05T12:59:18;28.10;99.90
3715;DHT22;1873;49.988;8.674;2022-08-05T13:02:10;28.00;99.90
3715;DHT22;1873;49.988;8.674;2022-08-05T13:04:42;27.90;99.90
3715;DHT22;1873;49.988;8.674;2022-08-05T13:07:23;27.90;99.90
3715;DHT22;1873;49.988;8.674;2022-08-05T13:10:12;28.00;99.90
3715;DHT22;1873;49.988;8.674;2022-08-05T13:12:46;27.90;99.90
3715;DHT22;1873;49.988;8.674;2022-08-05T13:15:28;27.80;99.90
3715;DHT22;1873;49.988;8.674;2022-08-05T13:18:17;27.70;99.90
3715;DHT22;1873;49.988;8.674;2022-08-05T13:20:46;27.80;99.90
3715;DHT22;1873;49.988;8.674;2022-08-05T13:23:16;27.80;99.90
3715;DHT22;1873;49.988;8.674;2022-08-05T13:25:48;27.80;99.90
3715;DHT22;1873;49.988;8.674;2022-08-05T13:28:27;27.70;99.90
3715;DHT22;1873;49.988;8.674;2022-08-05T13:30:58;27.60;99.90
3715;DHT22;1873;49.988;8.674;2022-08-05T13:33:38;27.50;99.90
3715;DHT22;1873;49.988;8.674;2022-08-05T13:36:28;27.40;99.90
3715;DHT22;1873;49.988;8.674;2022-08-05T13:39:06;27.40;99.90
3715;DHT22;1873;49.988;8.674;2022-08-05T13:42:02;27.40;99.90
3715;DHT22;1873;49.988;8.674;2022-08-05T13:44:33;27.40;99.90
3715;DHT22;1873;49.988;8.674;2022-08-05T13:47:11;27.40;99.90
3715;DHT22;1873;49.988;8.674;2022-08-05T13:50:02;27.40;99.90
3715;DHT22;1873;49.988;8.674;2022-08-05T13:52:37;27.40;99.90
3715;DHT22;1873;49.988;8.674;2022-08-05T13:55:07;27.40;99.90
3715;DHT22;1873;49.988;8.674;2022-08-05T13:58:11;27.30;99.90
3715;DHT22;1873;49.988;8.674;2022-08-05T14:00:59;27.40;99.90
3715;DHT22;1873;49.988;8.674;2022-08-05T14:03:27;27.40;99.90
3715;DHT22;1873;49.988;8.674;2022-08-05T14:06:11;27.60;99.90
3715;DHT22;1873;49.988;8.674;2022-08-05T14:08:52;27.00;99.90
3715;DHT22;1873;49.988;8.674;2022-08-05T14:11:25;27.50;99.90
3715;DHT22;1873;49.988;8.674;2022-08-05T14:13:57;27.60;99.90
3715;DHT22;1873;49.988;8.674;2022-08-05T14:16:25;27.70;99.90
3715;DHT22;1873;49.988;8.674;2022-08-05T14:18:53;27.60;99.90
3715;DHT22;1873;49.988;8.674;2022-08-05T14:21:24;27.60;99.90
3715;DHT22;1873;49.988;8.674;2022-08-05T14:24:12;27.60;99.90
3715;DHT22;1873;49.988;8.674;2022-08-05T14:26:50;27.50;99.90
3715;DHT22;1873;49.988;8.674;2022-08-05T14:29:44;27.50;99.90
3715;DHT22;1873;49.988;8.674;2022-08-05T14:32:17;27.40;99.90
3715;DHT22;1873;49.988;8.674;2022-08-05T14:34:53;27.20;99.90
3715;DHT22;1873;49.988;8.674;2022-08-05T14:37:24;26.90;99.90
3715;DHT22;1873;49.988;8.674;2022-08-05T14:40:13;26.80;99.90
3715;DHT22;1873;49.988;8.674;2022-08-05T14:42:42;26.90;99.90
3715;DHT22;1873;49.988;8.674;2022-08-05T14:45:11;27.00;99.90
3715;DHT22;1873;49.988;8.674;2022-08-05T14:47:40;26.90;99.90
3715;DHT22;1873;49.988;8.674;2022-08-05T14:50:29;26.70;99.90
3715;DHT22;1873;49.988;8.674;2022-08-05T14:52:58;26.60;99.90
3715;DHT22;1873;49.988;8.674;2022-08-05T14:55:27;26.50;99.90
3715;DHT22;1873;49.988;8.674;2022-08-05T14:58:07;26.40;99.90
3715;DHT22;1873;49.988;8.674;2022-08-05T15:00:38;26.40;99.90
3715;DHT22;1873;49.988;8.674;2022-08-05T15:03:26;26.30;99.90
3715;DHT22;1873;49.988;8.674;2022-08-05T15:06:01;26.20;99.90
3715;DHT22;1873;49.988;8.674;2022-08-05T15:08:43;26.10;99.90
3715;DHT22;1873;49.988;8.674;2022-08-05T15:11:30;26.00;99.90
3715;DHT22;1873;49.988;8.674;2022-08-05T15:14:19;26.10;99.90
3715;DHT22;1873;49.988;8.674;2022-08-05T15:17:07;26.00;99.90
3715;DHT22;1873;49.988;8.674;2022-08-05T15:19:55;25.90;99.90
3715;DHT22;1873;49.988;8.674;2022-08-05T15:22:25;25.80;99.90
3715;DHT22;1873;49.988;8.674;2022-08-05T15:24:56;25.80;99.90
3715;DHT22;1873;49.988;8.674;2022-08-05T15:27:25;25.70;99.90
3715;DHT22;1873;49.988;8.674;2022-08-05T15:30:02;25.70;99.90
3715;DHT22;1873;49.988;8.674;2022-08-05T15:32:31;25.70;99.90
3715;DHT22;1873;49.988;8.674;2022-08-05T15:35:00;25.60;99.90
3715;DHT22;1873;49.988;8.674;2022-08-05T15:37:36;25.60;99.90
3715;DHT22;1873;49.988;8.674;2022-08-05T15:40:26;25.40;99.90
3715;DHT22;1873;49.988;8.674;2022-08-05T15:43:15;25.40;99.90
3715;DHT22;1873;49.988;8.674;2022-08-05T15:45:46;25.40;99.90
3715;DHT22;1873;49.988;8.674;2022-08-05T15:48:27;25.50;99.90
3715;DHT22;1873;49.988;8.674;2022-08-05T15:50:56;25.40;99.90
3715;DHT22;1873;49.988;8.674;2022-08-05T15:53:29;25.40;99.90
3715;DHT22;1873;49.988;8.674;2022-08-05T15:56:17;25.40;99.90
3715;DHT22;1873;49.988;8.674;2022-08-05T15:58:46;25.30;99.90
3715;DHT22;1873;49.988;8.674;2022-08-05T16:01:15;25.20;99.90
3715;DHT22;1873;49.988;8.674;2022-08-05T16:03:45;25.20;99.90
3715;DHT22;1873;49.988;8.674;2022-08-05T16:06:16;25.20;99.90
3715;DHT22;1873;49.988;8.674;2022-08-05T16:08:49;25.30;99.90
3715;DHT22;1873;49.988;8.674;2022-08-05T16:11:22;25.20;99.90
3715;DHT22;1873;49.988;8.674;2022-08-05T16:14:08;25.30;99.90
3715;DHT22;1873;49.988;8.674;2022-08-05T16:16:44;25.30;99.90
3715;DHT22;1873;49.988;8.674;2022-08-05T16:19:13;25.30;99.90
3715;DHT22;1873;49.988;8.674;2022-08-05T16:21:51;25.30;99.90
3715;DHT22;1873;49.988;8.674;2022-08-05T16:24:28;25.20;99.90
3715;DHT22;1873;49.988;8.674;2022-08-05T16:27:52;25.20;99.90
3715;DHT22;1873;49.988;8.674;2022-08-05T16:30:32;25.20;99.90
3715;DHT22;1873;49.988;8.674;2022-08-05T16:33:02;25.20;99.90
3715;DHT22;1873;49.988;8.674;2022-08-05T16:35:30;25.30;99.90
3715;DHT22;1873;49.988;8.674;2022-08-05T16:38:07;25.20;99.90
3715;DHT22;1873;49.988;8.674;2022-08-05T16:40:50;25.20;99.90
3715;DHT22;1873;49.988;8.674;2022-08-05T16:43:23;25.10;99.90
3715;DHT22;1873;49.988;8.674;2022-08-05T16:45:54;25.00;99.90
3715;DHT22;1873;49.988;8.674;2022-08-05T16:48:43;25.00;99.90
3715;DHT22;1873;49.988;8.674;2022-08-05T16:51:11;24.90;99.90
3715;DHT22;1873;49.988;8.674;2022-08-05T16:53:42;24.80;99.90
3715;DHT22;1873;49.988;8.674;2022-08-05T16:56:32;24.80;99.90
3715;DHT22;1873;49.988;8.674;2022-08-05T16:59:04;24.70;99.90
3715;DHT22;1873;49.988;8.674;2022-08-05T17:01:35;24.70;99.90
3715;DHT22;1873;49.988;8.674;2022-08-05T17:04:23;24.90;99.90
3715;DHT22;1873;49.988;8.674;2022-08-05T17:06:54;24.90;99.90
3715;DHT22;1873;49.988;8.674;2022-08-05T17:09:27;24.80;99.90
3715;DHT22;1873;49.988;8.674;2022-08-05T17:11:55;24.80;99.90
3715;DHT22;1873;49.988;8.674;2022-08-05T17:14:27;24.80;99.90
3715;DHT22;1873;49.988;8.674;2022-08-05T17:17:06;24.80;99.90
3715;DHT22;1873;49.988;8.674;2022-08-05T17:19:41;24.90;99.90
3715;DHT22;1873;49.988;8.674;2022-08-05T17:22:13;24.80;99.90
3715;DHT22;1873;49.988;8.674;2022-08-05T17:24:52;24.80;99.90
3715;DHT22;1873;49.988;8.674;2022-08-05T17:27:24;24.80;99.90
3715;DHT22;1873;49.988;8.674;2022-08-05T17:30:02;24.90;99.90
3715;DHT22;1873;49.988;8.674;2022-08-05T17:32:45;24.90;99.90
3715;DHT22;1873;49.988;8.674;2022-08-05T17:35:13;24.90;99.90
3715;DHT22;1873;49.988;8.674;2022-08-05T17:37:47;24.90;99.90
3715;DHT22;1873;49.988;8.674;2022-08-05T17:40:17;25.00;99.90
3715;DHT22;1873;49.988;8.674;2022-08-05T17:42:49;24.90;99.90
3715;DHT22;1873;49.988;8.674;2022-08-05T17:45:21;24.80;99.90
3715;DHT22;1873;49.988;8.674;2022-08-05T17:48:04;24.80;99.90
3715;DHT22;1873;49.988;8.674;2022-08-05T17:50:34;24.90;99.90